Date,TemperatureHighF,TemperatureAvgF,TemperatureLowF,DewpointHighF,DewpointAvgF,DewpointLowF,HumidityHigh,HumidityAvg,HumidityLow,PressureMaxIn,PressureMinIn,WindSpeedMaxMPH,WindSpeedAvgMPH,GustSpeedMaxMPH,PrecipitationSumIn
2013-1-1,45.4,31.9,19.3,27.9,22.6,16.8,92,72,38,30.36,30.22,3,0,10,0.00
2013-1-2,51.8,36.4,22.9,28.4,24.6,19.5,92,65,37,30.26,30.10,8,1,13,0.01
2013-1-3,46.1,35.1,26.5,34.2,28.3,22.8,88,77,50,30.31,30.11,12,5,20,0.00
2013-1-4,46.8,36.5,29.4,31.1,28.8,25.2,89,75,54,30.39,30.28,6,2,19,0.00
2013-1-5,55.5,34.7,23.3,31.4,24.4,19.8,93,70,26,30.45,30.33,2,0,5,0.00
2013-1-6,56.7,43.8,31.1,27.3,22.8,18.0,67,45,27,30.33,29.99,13,4,18,0.00
2013-1-7,58.2,43.1,32.0,27.6,21.3,7.4,72,47,13,29.99,29.78,9,2,14,0.00
2013-1-8,60.3,44.1,30.4,30.1,24.3,18.8,76,49,20,30.14,29.88,11,3,18,0.00
2013-1-9,59.9,39.9,24.6,26.1,20.6,15.7,81,50,18,30.31,30.13,10,1,16,0.00
2013-1-10,65.6,47.5,29.8,25.3,22.1,19.4,75,42,18,30.14,29.85,16,7,30,0.00
2013-1-11,49.8,39.3,20.7,36.8,16.6,5.9,75,43,18,30.00,29.85,20,5,30,0.00
2013-1-12,39.7,26.2,14.5,17.7,10.2,6.7,85,54,29,30.25,29.99,10,2,15,0.00
2013-1-13,46.1,26.8,9.5,14.4,5.9,-1.8,92,48,14,30.27,30.09,7,1,16,0.00
2013-1-14,42.2,26.1,10.9,11.0,4.9,0.8,76,44,20,30.31,30.16,10,2,17,0.00
2013-1-15,40.1,25.3,13.7,5.4,0.8,-2.9,57,37,16,30.50,30.31,9,4,14,0.00
2013-1-16,54.3,33.0,18.1,9.8,4.3,-1.2,47,32,14,30.54,30.37,9,1,14,0.00
2013-1-17,62.3,42.9,24.6,15.5,11.8,6.7,48,30,15,30.41,30.27,11,2,18,0.00
2013-1-18,64.4,42.9,25.4,19.2,15.6,12.3,60,37,14,30.35,30.19,7,1,10,0.00
2013-1-19,70.4,46.7,26.9,30.0,22.1,16.5,66,42,16,30.33,30.17,2,0,11,0.00
2013-1-20,72.1,51.8,33.5,33.9,27.1,20.5,63,41,22,30.24,30.02,4,0,10,0.00
2013-1-21,70.9,50.2,33.8,38.0,30.4,26.6,77,51,24,30.16,30.03,7,1,13,0.00
2013-1-22,72.4,50.5,31.5,35.4,29.8,25.6,88,52,18,30.24,30.12,8,1,14,0.00
2013-1-23,73.8,51.7,31.2,32.1,28.5,23.9,75,46,20,30.29,30.15,10,1,14,0.00
2013-1-24,69.9,55.0,40.5,41.9,35.7,30.2,68,51,27,30.25,30.15,6,1,9,0.00
2013-1-25,71.6,58.5,46.4,51.1,42.1,39.5,92,58,33,30.20,29.97,11,1,11,0.02
2013-1-26,64.6,55.6,48.7,54.1,48.3,40.7,95,78,45,29.98,29.85,15,6,26,0.27
2013-1-27,60.2,52.2,47.2,49.1,45.8,43.2,95,80,55,30.00,29.93,8,2,15,0.08
2013-1-28,54.5,46.6,35.2,46.1,40.4,31.8,92,80,53,29.97,29.86,19,8,31,0.24
2013-1-29,45.7,37.0,28.7,33.1,24.5,17.6,93,63,33,30.25,29.96,13,5,21,0.05
2013-1-30,51.5,37.6,23.4,27.2,20.4,12.6,88,55,22,30.42,30.25,7,1,13,0.00
2013-1-31,59.3,41.1,26.0,30.2,24.5,20.3,82,56,25,30.33,30.20,3,0,7,0.00
2013-2-1,66.6,41.4,25.7,32.8,26.2,21.7,88,60,18,30.31,30.20,0,0,6,0.00
2013-2-2,71.2,49.4,29.7,35.5,24.5,13.5,89,47,11,30.31,30.17,8,1,13,0.00
2013-2-3,65.6,50.4,42.4,43.9,32.9,25.1,82,54,22,30.19,29.96,12,1,19,0.00
2013-2-4,68.4,49.8,32.9,39.4,36.2,30.3,92,64,32,30.09,29.95,7,1,17,0.00
2013-2-5,68.0,49.6,31.9,40.9,34.4,29.5,94,62,24,30.06,29.93,6,1,14,0.00
2013-2-6,67.0,50.4,34.9,38.2,33.4,29.1,89,57,25,30.05,29.89,8,2,20,0.00
2013-2-7,65.8,46.9,29.3,38.4,30.1,24.7,92,58,21,30.13,30.00,5,0,10,0.00
2013-2-8,64.8,50.3,34.3,29.1,21.4,3.2,72,38,9,30.02,29.79,20,9,33,0.00
2013-2-9,49.8,41.2,26.3,32.6,23.8,16.9,74,52,29,30.07,29.74,17,7,24,0.00
2013-2-10,57.0,37.8,18.5,26.7,13.6,-4.3,89,47,8,30.14,30.00,11,3,22,0.00
2013-2-11,51.7,37.8,26.2,32.9,20.9,8.9,92,54,28,30.18,29.98,16,6,25,0.00
2013-2-12,47.2,33.6,20.6,32.3,22.3,12.6,95,69,25,30.32,30.18,7,2,16,0.03
2013-2-13,57.5,40.0,20.2,25.9,18.7,11.2,88,49,16,30.30,30.14,9,1,9,0.00
2013-2-14,64.0,43.0,21.3,23.0,18.6,15.1,79,43,17,30.21,30.07,8,1,13,0.00
2013-2-15,63.7,47.2,33.3,26.8,15.6,-5.6,66,34,6,30.31,30.17,11,2,19,0.00
2013-2-16,67.1,49.2,29.8,18.1,11.9,4.7,53,26,9,30.34,30.08,11,2,21,0.00
2013-2-17,71.0,49.5,24.1,17.1,9.7,-0.2,66,26,7,30.08,29.89,17,5,24,0.00
2013-2-18,67.5,50.2,29.3,17.7,11.0,0.9,54,24,7,30.06,29.93,9,2,21,0.00
2013-2-19,60.1,48.8,39.5,40.5,26.3,12.5,65,43,25,29.98,29.71,23,9,33,0.00
2013-2-20,47.2,37.9,28.4,36.2,29.0,21.4,94,72,43,29.98,29.65,22,10,31,0.11
2013-2-21,49.2,41.4,24.7,32.2,28.0,22.7,94,61,38,30.11,29.97,7,1,10,0.10
2013-2-22,55.1,40.2,26.5,33.0,28.9,24.3,93,68,34,30.19,30.07,10,1,19,0.00
2013-2-23,67.6,46.6,24.9,30.9,23.6,15.5,91,50,14,30.19,29.85,17,4,22,0.00
2013-2-24,51.8,40.8,25.7,23.9,15.2,3.0,53,36,20,30.09,29.77,19,6,29,0.00
2013-2-25,55.3,37.3,20.0,16.8,10.5,2.7,64,37,12,30.28,30.09,8,2,15,0.00
2013-2-26,65.8,41.9,19.8,21.9,11.3,0.8,78,38,8,30.13,29.98,14,3,23,0.00
2013-2-27,59.4,43.8,26.2,15.3,9.5,2.2,54,28,11,30.24,30.10,7,1,11,0.00
2013-2-28,61.6,46.0,31.5,8.6,2.4,-12.6,35,19,5,30.35,30.22,11,4,16,0.00
2013-3-1,70.3,48.1,25.3,17.3,10.7,5.0,47,25,10,30.37,30.22,12,2,16,0.00
2013-3-2,78.4,53.0,27.9,23.3,14.4,-5.0,65,29,4,30.37,30.14,9,1,14,0.00
2013-3-3,80.9,57.1,30.7,22.6,9.9,-16.0,62,24,2,30.17,29.93,12,3,21,0.00
2013-3-4,72.2,60.3,44.2,31.0,18.9,-4.6,43,21,7,30.02,29.77,13,4,27,0.00
2013-3-5,74.0,56.1,36.2,28.9,23.9,19.0,61,33,13,30.12,30.00,10,2,18,0.00
2013-3-6,77.6,62.9,51.3,30.4,23.4,16.5,36,23,11,30.01,29.83,15,5,29,0.00
2013-3-7,71.8,58.5,41.5,29.4,25.2,20.6,57,30,15,29.93,29.84,12,4,22,0.00
2013-3-8,58.5,49.4,41.6,47.4,37.6,24.4,89,66,36,29.93,29.74,22,10,34,0.51
2013-3-9,51.5,42.9,34.6,34.1,30.4,25.8,82,62,38,30.10,29.91,12,4,26,0.00
2013-3-10,58.2,45.6,34.5,36.2,31.2,22.5,92,62,25,30.19,30.09,10,3,15,0.00
2013-3-11,69.8,47.5,30.5,33.4,23.9,8.3,85,48,9,30.22,30.02,5,1,6,0.00
2013-3-12,77.7,55.9,31.4,32.2,24.4,15.9,83,37,10,30.11,30.01,4,0,9,0.00
2013-3-13,82.1,60.6,41.9,29.8,22.0,12.1,55,28,8,30.16,30.01,7,1,14,0.00
2013-3-14,84.9,62.5,38.5,31.2,19.3,4.9,61,25,5,30.13,30.00,5,0,12,0.00
2013-3-15,87.4,64.5,39.1,26.4,15.4,-0.6,58,22,4,30.05,29.88,13,3,16,0.00
2013-3-16,81.3,64.8,41.9,24.6,15.2,3.7,43,18,6,29.91,29.71,16,4,24,0.00
2013-3-17,76.5,63.0,45.0,24.3,18.8,11.3,32,19,10,29.89,29.74,14,5,23,0.00
2013-3-18,77.9,62.3,45.9,34.9,25.9,14.5,57,28,9,29.94,29.83,9,3,20,0.00
2013-3-19,74.8,61.6,47.3,31.2,25.4,14.2,44,27,11,30.02,29.87,11,4,18,0.00
2013-3-20,81.1,62.1,40.1,32.7,26.5,19.5,65,31,11,30.04,29.83,9,2,17,0.00
2013-3-21,76.4,61.8,45.4,30.4,23.4,9.6,49,26,8,29.84,29.68,10,2,17,0.00
2013-3-22,74.9,64.1,54.4,33.4,26.5,14.2,41,25,10,29.75,29.61,13,5,27,0.00
2013-3-23,70.8,59.0,42.7,31.3,19.5,6.1,54,25,8,29.95,29.75,14,4,22,0.00
2013-3-24,73.0,53.9,34.0,17.9,10.6,2.6,47,21,8,30.00,29.81,12,2,19,0.00
2013-3-25,73.8,56.8,33.5,16.6,10.6,3.9,37,17,9,30.00,29.88,7,1,12,0.00
2013-3-26,80.0,62.0,38.4,17.9,13.8,6.6,41,18,6,30.00,29.83,9,2,20,0.00
2013-3-27,77.2,63.6,45.5,29.0,20.5,10.1,36,21,8,29.95,29.85,13,4,21,0.00
2013-3-28,78.9,63.7,44.3,35.1,25.1,10.6,55,26,8,30.01,29.89,9,3,17,0.00
2013-3-29,81.7,66.5,48.0,31.1,23.5,15.3,39,21,10,30.05,29.90,11,2,21,0.00
2013-3-30,77.9,63.7,49.4,25.4,18.9,-0.4,38,20,5,30.01,29.86,10,2,15,0.00
2013-3-31,82.1,62.7,41.4,27.4,23.1,17.7,47,25,10,30.00,29.85,7,1,16,0.00
2013-4-1,81.5,63.1,40.9,30.1,21.0,7.8,45,23,6,29.96,29.81,12,4,23,0.00
2013-4-2,76.8,59.6,39.3,28.4,17.7,-10.5,55,25,3,29.92,29.77,15,3,22,0.00
2013-4-3,76.7,60.7,41.2,25.7,18.3,7.9,43,22,7,30.01,29.89,11,3,19,0.00
2013-4-4,82.6,63.2,41.0,27.0,17.5,4.2,44,20,5,30.07,29.89,9,1,15,0.00
2013-4-5,83.8,66.6,46.3,27.6,21.2,15.1,35,20,9,29.94,29.78,13,4,22,0.00
2013-4-6,81.4,66.9,52.1,35.3,28.5,21.2,44,26,12,29.88,29.75,12,4,25,0.00
2013-4-7,81.7,63.4,48.8,33.3,27.7,23.2,50,29,12,29.83,29.68,13,4,21,0.00
2013-4-8,74.8,63.4,53.0,38.6,33.4,27.6,57,34,18,29.68,29.35,27,15,40,0.00
2013-4-9,56.8,49.8,43.8,41.0,32.9,24.8,81,54,29,29.75,29.45,26,9,35,0.06
2013-4-10,64.1,58.0,41.5,33.1,23.6,19.7,72,28,19,29.99,29.89,13,5,19,0.00
2013-4-11,76.9,65.1,46.9,27.6,20.0,13.4,46,19,10,29.98,29.76,7,2,15,0.00
2013-4-12,76.5,59.8,39.6,24.9,21.0,17.0,48,25,11,29.82,29.67,7,2,15,0.00
2013-4-13,79.3,64.4,43.1,26.2,23.3,19.5,45,23,11,29.82,29.67,10,2,16,0.00
2013-4-14,77.7,64.8,52.1,37.0,28.9,15.7,49,28,11,29.75,29.63,18,9,29,0.00
2013-4-15,78.4,65.3,50.5,39.8,32.4,25.1,57,32,15,29.75,29.63,24,12,37,0.00
2013-4-16,78.3,65.5,51.7,45.8,29.3,11.6,58,31,8,29.78,29.67,16,7,29,0.00
2013-4-17,67.4,58.3,48.1,45.6,27.7,8.3,60,34,15,29.94,29.67,16,9,25,0.00
2013-4-18,65.7,52.8,35.1,11.8,5.4,-7.2,33,16,6,30.14,29.94,10,5,17,0.00
2013-4-19,75.3,56.6,33.2,7.6,0.0,-13.2,30,12,3,30.19,29.94,10,2,16,0.00
2013-4-20,80.4,60.3,33.9,11.9,2.5,-8.0,25,12,3,30.00,29.85,14,4,26,0.00
2013-4-21,86.3,65.7,38.3,14.5,9.0,1.3,33,13,4,30.03,29.86,8,2,15,0.00
2013-4-22,87.8,68.3,44.0,19.0,10.6,2.2,28,13,4,29.94,29.74,14,4,20,0.01
2013-4-23,83.7,71.7,57.4,22.9,18.9,12.5,24,14,7,29.76,29.68,14,8,25,0.00
2013-4-24,84.8,73.3,63.6,23.3,14.4,9.4,16,11,6,29.85,29.77,7,4,18,0.00
2013-4-25,78.3,65.0,55.8,30.7,23.9,17.4,33,22,11,29.95,29.78,18,6,26,0.00
2013-4-26,82.6,64.4,40.3,26.0,11.5,-8.9,45,18,3,30.05,29.94,9,1,14,0.00
2013-4-27,84.5,63.2,43.2,24.4,17.5,0.5,38,20,4,30.04,29.87,6,1,12,0.00
2013-4-28,87.6,83.7,71.2,22.1,9.1,-2.8,15,6,3,29.86,29.68,6,3,14,0.00
2013-4-29,91.3,84.6,62.0,18.0,7.4,2.9,18,6,4,29.78,29.60,7,2,19,0.00
2013-4-30,88.9,82.4,67.8,21.4,15.1,8.9,17,8,5,29.74,29.64,11,6,24,0.00
2013-5-1,87.3,80.0,63.8,25.2,16.9,10.9,21,10,6,29.84,29.77,9,4,20,0.00
2013-5-2,80.7,76.5,65.1,25.5,20.6,9.2,14,12,10,30.03,29.93,11,7,18,0.00
2013-5-3,80.5,70.4,56.5,19.9,15.7,12.8,22,13,8,30.03,29.79,10,3,17,0.00
2013-5-4,85.3,69.5,45.1,32.4,22.2,17.9,34,18,9,29.80,29.66,11,4,21,0.00
2013-5-5,84.3,75.3,65.6,36.3,28.4,20.3,32,19,10,29.82,29.70,11,7,24,0.00
2013-5-6,79.6,67.6,51.0,40.4,35.0,29.1,53,32,16,29.88,29.79,11,4,23,0.00
2013-5-7,78.9,70.9,60.9,40.7,30.0,20.8,44,23,12,29.91,29.80,14,6,27,0.00
2013-5-8,77.9,65.6,48.7,34.4,28.5,18.0,52,28,11,29.93,29.84,12,6,22,0.00
2013-5-9,79.9,72.7,61.0,40.1,27.3,21.5,46,20,12,29.92,29.80,8,5,20,0.00
2013-5-10,79.2,71.7,54.6,33.6,30.2,26.1,39,22,16,29.98,29.88,10,3,16,0.00
2013-5-11,78.3,72.9,60.9,37.9,34.9,31.3,42,26,20,30.06,29.97,9,4,16,0.00
2013-5-12,80.8,72.3,57.4,38.6,30.2,24.6,42,22,13,30.07,29.90,13,6,22,0.00
2013-5-13,85.3,69.8,50.9,37.6,25.5,10.1,41,22,7,30.04,29.88,11,3,27,0.00
2013-5-14,88.3,72.9,50.4,38.4,33.1,23.5,57,27,10,29.94,29.77,14,2,23,0.00
2013-5-15,91.5,75.5,55.6,37.1,33.1,30.2,42,23,12,29.90,29.75,9,2,20,0.00
2013-5-16,90.7,81.9,63.5,34.6,22.8,8.6,24,12,5,29.84,29.70,12,5,21,0.00
2013-5-17,87.3,72.9,52.2,32.3,24.4,14.0,37,18,7,29.81,29.72,11,4,23,0.00
2013-5-18,85.7,72.7,55.3,34.3,26.5,10.7,42,20,6,29.82,29.73,12,5,23,0.00
2013-5-19,89.4,71.7,52.2,35.7,24.7,9.1,47,21,5,29.83,29.68,7,1,15,0.00
2013-5-20,90.1,72.5,46.9,34.7,26.9,17.1,44,21,9,29.82,29.67,12,3,21,0.00
2013-5-21,91.1,72.1,46.7,24.2,16.5,4.9,34,14,4,29.84,29.68,7,2,18,0.00
2013-5-22,93.7,74.1,49.3,24.7,17.7,1.0,28,14,3,29.76,29.63,11,4,21,0.00
2013-5-23,93.0,76.6,57.9,36.1,22.9,5.7,31,16,4,29.76,29.67,9,4,21,0.00
2013-5-24,92.3,75.9,58.1,43.8,24.2,4.7,53,21,4,29.83,29.73,9,3,16,0.00
2013-5-25,91.5,74.0,52.5,36.4,21.8,10.8,35,16,5,29.86,29.76,9,3,19,0.00
2013-5-26,91.6,74.9,54.5,31.0,17.8,-0.8,30,14,3,29.86,29.77,11,4,21,0.00
2013-5-27,93.3,74.7,50.6,33.2,15.0,-8.3,38,15,2,29.81,29.65,11,3,18,0.00
2013-5-28,90.1,71.9,47.3,30.2,15.8,-2.9,32,14,3,29.69,29.55,11,4,22,0.00
2013-5-29,89.2,74.8,57.6,45.1,31.6,24.0,41,23,10,29.65,29.56,8,4,21,0.00
2013-5-30,93.1,77.3,61.7,53.4,39.0,27.4,68,31,10,29.73,29.63,10,5,20,0.00
2013-5-31,96.4,78.8,55.1,53.7,38.9,28.0,74,29,9,29.77,29.62,10,2,18,0.00
2013-6-1,97.4,77.6,54.0,40.1,32.6,22.9,49,23,7,29.75,29.59,5,1,12,0.00
2013-6-2,100.5,82.6,61.3,41.6,32.2,24.1,37,18,7,29.69,29.55,10,3,21,0.00
2013-6-3,96.8,80.5,62.4,37.9,27.1,11.5,31,17,5,29.71,29.62,11,4,20,0.00
2013-6-4,96.0,79.5,56.6,44.6,34.0,24.3,43,22,8,29.77,29.67,11,3,18,0.00
2013-6-5,97.5,86.0,66.0,39.2,17.6,-0.3,25,10,3,29.78,29.65,8,3,19,0.00
2013-6-6,98.0,79.0,51.2,24.9,17.5,7.8,28,12,4,29.74,29.60,7,1,12,0.00
2013-6-7,102.3,81.4,56.8,30.0,23.2,11.3,29,14,4,29.71,29.52,6,1,13,0.00
2013-6-8,99.9,83.0,62.5,37.1,26.9,19.0,27,15,6,29.71,29.59,13,5,24,0.00
2013-6-9,100.1,81.7,58.7,42.6,27.4,17.9,38,17,6,29.77,29.66,10,3,23,0.00
2013-6-10,102.6,84.3,59.9,33.3,25.9,19.5,27,14,7,29.79,29.63,13,2,27,0.00
2013-6-11,103.7,86.1,61.3,32.9,25.7,18.3,29,13,6,29.76,29.60,12,3,19,0.00
2013-6-12,104.2,84.7,69.5,43.6,31.4,24.0,33,16,6,29.78,29.60,13,5,23,0.00
2013-6-13,100.7,85.0,70.1,53.0,43.0,29.2,52,26,11,29.75,29.60,13,4,21,0.00
2013-6-14,95.6,79.5,67.1,61.6,52.9,39.1,70,42,21,29.74,29.61,11,3,14,0.03
2013-6-15,94.8,78.4,65.3,58.7,54.4,45.8,75,46,23,29.81,29.71,11,4,23,0.00
2013-6-16,98.0,80.9,61.7,56.9,46.2,32.2,76,35,11,29.84,29.71,8,2,19,0.00
2013-6-17,98.7,80.4,56.8,40.9,29.5,19.8,46,19,7,29.83,29.68,11,2,22,0.00
2013-6-18,100.0,79.9,55.7,37.5,21.8,4.9,41,16,3,29.78,29.65,8,3,17,0.00
2013-6-19,100.6,82.0,58.8,35.4,26.3,13.8,28,15,6,29.69,29.58,15,4,23,0.00
2013-6-20,99.1,80.8,58.7,38.9,26.7,-6.8,31,16,2,29.72,29.63,13,4,23,0.00
2013-6-21,98.3,82.9,62.3,46.5,35.5,20.0,46,22,6,29.75,29.64,12,4,24,0.00
2013-6-22,97.7,82.3,65.2,40.2,29.9,18.0,34,17,6,29.75,29.62,11,4,23,0.00
2013-6-23,95.6,81.0,65.3,38.4,33.3,27.5,31,19,10,29.73,29.59,15,5,26,0.00
2013-6-24,94.8,80.3,68.0,43.6,37.5,32.8,34,23,13,29.75,29.65,12,4,26,0.00
2013-6-25,99.1,81.8,63.6,44.1,29.9,18.5,47,19,6,29.81,29.70,10,3,19,0.00
2013-6-26,98.6,81.5,58.4,35.1,28.2,21.1,31,16,9,29.91,29.77,9,2,16,0.00
2013-6-27,101.6,83.7,59.8,51.7,32.8,21.9,49,18,9,29.91,29.75,11,4,20,0.00
2013-6-28,104.8,87.1,64.7,35.8,31.6,27.1,28,15,7,29.83,29.67,14,2,18,0.00
2013-6-29,103.1,87.7,70.1,42.4,34.1,24.9,27,16,7,29.77,29.59,9,2,17,0.00
2013-6-30,102.6,83.8,69.7,63.4,47.3,38.9,74,34,12,29.75,29.54,16,3,26,0.08
2013-7-1,98.7,83.9,69.5,62.5,55.2,41.3,77,42,16,29.80,29.65,7,2,15,0.00
2013-7-2,94.6,80.2,65.2,62.4,55.9,48.6,85,49,21,29.89,29.69,14,3,22,0.09
2013-7-3,96.5,80.6,66.8,61.5,54.5,48.5,83,46,20,29.84,29.58,14,2,22,0.31
2013-7-4,97.9,81.0,65.8,64.1,57.3,48.0,85,50,19,29.74,29.58,13,4,19,0.00
2013-7-5,94.7,76.4,67.1,66.5,62.0,52.2,88,65,28,29.75,29.62,16,2,16,0.65
2013-7-6,98.6,76.6,64.2,69.1,62.8,49.4,94,68,20,29.75,29.61,14,0,20,0.16
2013-7-7,98.3,79.1,68.0,68.3,61.9,51.1,89,61,21,29.77,29.60,14,1,22,0.07
2013-7-8,97.1,80.7,70.2,64.7,60.7,53.4,80,54,24,29.88,29.70,11,2,21,0.00
2013-7-9,92.6,76.3,63.4,66.7,62.9,56.3,94,69,30,29.95,29.72,19,4,27,5.02
2013-7-10,87.7,74.7,65.2,68.4,65.1,61.6,96,75,46,29.92,29.76,13,4,27,0.39
2013-7-11,88.5,74.6,65.0,68.3,64.8,61.1,95,74,40,29.92,29.72,9,2,19,0.10
2013-7-12,92.4,77.7,66.1,68.7,61.9,55.7,93,62,31,29.86,29.69,10,2,17,0.09
2013-7-13,92.3,78.2,66.3,65.6,61.7,56.2,88,60,30,29.84,29.67,19,4,24,0.32
2013-7-14,94.5,79.7,68.7,66.7,62.2,54.3,85,59,27,29.82,29.67,11,2,20,0.00
2013-7-15,90.3,77.8,68.8,67.1,63.5,58.6,89,64,38,29.79,29.61,16,3,24,0.09
2013-7-16,80.6,69.2,65.7,65.5,64.3,62.7,96,85,56,29.95,29.78,10,1,24,0.84
2013-7-17,86.6,74.1,64.6,65.9,60.8,55.5,97,68,36,29.98,29.84,10,2,17,0.01
2013-7-18,82.6,73.9,65.0,62.9,59.9,56.7,84,63,44,29.92,29.77,8,2,17,0.01
2013-7-19,76.1,70.3,66.6,66.1,64.2,61.5,90,81,69,29.85,29.75,8,1,13,0.12
2013-7-20,78.2,71.7,65.4,67.5,65.2,63.3,95,81,62,29.82,29.71,9,3,17,0.04
2013-7-21,86.3,75.4,66.0,65.6,62.7,59.4,92,67,42,29.83,29.72,8,4,17,0.00
2013-7-22,88.2,73.6,66.1,65.9,63.1,60.4,88,72,40,29.87,29.77,7,1,14,0.00
2013-7-23,87.6,73.8,67.0,68.3,64.8,59.8,92,76,40,29.88,29.76,11,2,21,0.89
2013-7-24,84.9,74.4,67.5,68.7,65.4,61.3,92,75,46,29.87,29.76,8,1,14,0.02
2013-7-25,88.5,75.4,68.3,68.7,66.1,62.5,93,75,42,29.92,29.81,9,1,14,0.00
2013-7-26,92.1,74.0,67.2,68.6,66.0,62.2,93,78,38,29.99,29.89,14,1,25,0.59
2013-7-27,88.8,74.7,67.4,68.5,65.4,60.1,94,75,39,29.94,29.78,13,1,16,0.02
2013-7-28,91.3,78.3,65.5,67.8,62.1,56.0,93,63,33,29.81,29.70,10,2,17,0.00
2013-7-29,92.7,79.7,67.2,63.3,58.3,51.6,84,52,26,29.89,29.76,9,3,15,0.00
2013-7-30,91.7,78.5,66.0,62.3,58.3,49.8,82,53,24,29.98,29.86,5,1,13,0.00
2013-7-31,94.1,80.0,70.7,68.3,62.1,56.0,88,58,30,29.93,29.80,9,1,16,0.04
2013-8-1,77.2,71.5,67.4,67.5,64.2,61.3,92,78,60,29.95,29.84,8,1,13,0.09
2013-8-2,87.7,72.9,65.6,67.4,64.6,60.3,93,77,45,29.91,29.83,14,2,15,0.91
2013-8-3,90.8,75.9,61.8,68.1,61.5,57.0,91,65,35,29.93,29.80,3,0,9,0.00
2013-8-4,87.9,77.4,70.6,65.0,62.2,58.8,77,61,38,29.89,29.78,8,2,13,0.00
2013-8-5,83.2,71.6,61.8,66.4,62.5,53.3,94,75,43,29.98,29.81,18,3,25,1.05
2013-8-6,81.1,69.8,62.5,66.9,62.8,60.2,95,80,53,29.93,29.85,7,2,13,0.13
2013-8-7,85.7,72.0,59.5,63.2,59.0,54.7,96,68,36,29.97,29.85,9,2,17,0.01
2013-8-8,89.6,73.5,57.9,60.7,55.2,47.4,92,59,24,29.90,29.77,3,0,9,0.00
2013-8-9,91.7,75.1,57.1,62.2,55.8,51.7,92,57,26,29.85,29.76,7,1,20,0.00
2013-8-10,88.6,74.1,62.5,63.0,56.4,47.5,77,56,27,29.91,29.80,9,1,16,0.00
2013-8-11,88.2,76.1,63.1,63.8,61.8,58.5,90,63,41,29.89,29.74,9,2,13,0.00
2013-8-12,93.0,77.9,63.7,65.8,61.5,55.5,90,61,29,29.85,29.73,9,1,13,0.00
2013-8-13,93.8,76.9,63.6,62.5,53.3,-99.9,74,49,28,29.88,29.73,7,1,11,0.00
2013-8-14,94.9,77.7,68.6,65.0,60.6,52.2,83,58,31,29.91,29.72,14,4,24,0.01
2013-8-15,92.5,79.2,67.8,63.3,59.6,54.1,78,54,28,29.88,29.76,3,0,18,0.00
2013-8-16,95.6,81.0,65.8,64.2,59.2,51.2,84,52,24,29.86,29.75,7,1,13,0.00
2013-8-17,97.1,80.8,63.2,65.2,57.7,50.3,89,51,22,29.86,29.69,6,1,12,0.00
2013-8-18,98.3,80.5,66.7,61.1,55.4,50.3,73,45,21,29.85,29.73,11,2,21,0.00
2013-8-19,96.3,80.0,67.6,60.8,56.5,49.9,78,49,22,29.85,29.71,8,1,17,0.00
2013-8-20,95.8,77.9,67.9,66.8,59.6,52.5,89,57,26,29.87,29.67,12,2,15,0.39
2013-8-21,91.6,76.3,64.7,65.5,61.9,55.5,93,65,32,29.85,29.76,8,0,10,0.02
2013-8-22,91.8,76.7,62.5,66.5,58.9,46.7,96,60,22,29.87,29.71,9,1,15,0.00
2013-8-23,90.7,76.3,64.1,62.7,56.8,52.3,92,54,28,29.84,29.64,13,2,19,0.39
2013-8-24,78.7,69.7,61.8,64.6,62.8,60.0,96,80,57,29.89,29.79,10,1,19,0.66
2013-8-25,85.0,73.0,66.9,67.0,64.8,62.0,94,77,50,29.92,29.80,6,1,11,0.00
2013-8-26,90.5,77.6,66.2,67.4,63.1,57.0,96,66,33,29.88,29.72,10,2,17,0.00
2013-8-27,91.4,77.5,62.9,65.7,59.2,50.5,91,58,25,29.80,29.67,14,2,23,0.02
2013-8-28,85.4,74.8,65.3,65.2,61.9,59.1,84,66,43,29.89,29.72,9,3,18,0.00
2013-8-29,80.5,71.1,67.5,68.1,65.5,63.5,95,83,60,29.99,29.87,11,1,15,0.07
2013-8-30,87.1,73.3,66.7,68.0,64.6,61.3,96,77,44,29.99,29.87,5,0,8,0.00
2013-8-31,91.5,76.0,59.8,65.1,60.3,57.2,95,62,34,29.93,29.75,7,1,12,0.00
2013-9-1,92.2,77.2,61.4,64.5,59.9,52.2,92,60,27,29.83,29.70,7,1,14,0.00
2013-9-2,89.6,75.6,63.0,68.2,62.1,58.4,90,65,38,29.89,29.70,8,1,13,0.47
2013-9-3,88.7,75.2,64.2,70.1,61.4,57.1,91,66,35,29.86,29.73,11,2,17,0.21
2013-9-4,90.6,74.0,60.8,64.9,59.1,50.8,95,66,26,29.90,29.80,8,2,14,0.00
2013-9-5,91.5,76.0,59.7,61.8,56.7,51.4,89,56,26,29.89,29.79,9,1,16,0.00
2013-9-6,92.2,75.1,59.7,62.5,57.2,53.7,90,58,28,29.91,29.73,16,3,28,0.09
2013-9-7,78.3,69.2,65.1,65.9,63.3,60.9,93,82,59,29.90,29.80,5,1,17,0.17
2013-9-8,79.1,69.4,64.9,65.7,63.9,62.0,95,84,57,29.85,29.69,8,0,16,0.11
2013-9-9,73.8,67.4,63.6,67.0,64.1,60.9,96,90,73,29.76,29.68,7,2,17,0.96
2013-9-10,82.2,70.1,61.4,65.4,60.8,56.7,97,75,43,29.85,29.75,7,1,14,0.00
2013-9-11,84.5,69.2,56.6,62.1,56.6,51.8,96,68,36,29.90,29.79,6,2,11,0.00
2013-9-12,88.1,73.3,60.6,63.5,58.3,54.6,86,62,38,29.83,29.66,3,1,9,0.00
2013-9-13,88.5,79.3,66.3,66.4,60.4,53.4,94,55,32,29.73,29.58,10,2,16,0.00
2013-9-14,90.0,75.3,61.4,64.6,60.5,53.7,94,64,30,29.68,29.57,4,1,15,0.00
2013-9-15,89.7,77.0,62.3,61.3,58.9,54.9,85,56,32,29.73,29.63,6,1,11,0.00
2013-9-16,90.3,76.6,60.9,62.1,58.5,54.9,88,57,32,29.79,29.67,9,2,17,0.00
2013-9-17,92.4,77.3,63.2,62.2,57.3,49.1,83,54,24,29.76,29.59,9,1,15,0.00
2013-9-18,93.1,78.3,65.2,64.4,54.3,44.5,76,48,19,29.69,29.54,7,1,13,0.00
2013-9-19,92.4,75.9,59.1,54.9,49.9,45.3,77,44,20,29.70,29.58,5,1,11,0.00
2013-9-20,90.6,71.7,60.2,63.2,57.1,46.7,88,63,33,29.82,29.65,15,2,20,0.42
2013-9-21,85.3,72.1,59.4,62.7,56.9,51.3,92,63,32,29.83,29.66,7,2,13,0.01
2013-9-22,85.1,73.8,63.1,63.6,57.4,52.3,82,58,37,29.67,29.54,12,4,23,0.00
2013-9-23,84.9,68.3,49.8,56.1,49.0,42.8,88,55,23,29.87,29.66,7,1,11,0.00
2013-9-24,90.2,68.9,47.9,49.3,44.5,37.2,90,48,20,29.95,29.77,6,1,18,0.00
2013-9-25,86.6,70.4,51.9,42.2,37.7,31.2,63,34,17,29.81,29.64,8,3,18,0.00
2013-9-26,86.2,72.0,56.1,57.6,41.3,29.1,68,35,22,29.70,29.59,9,3,21,0.00
2013-9-27,76.9,66.5,56.3,58.2,48.7,38.9,79,55,31,29.88,29.62,9,3,18,0.00
2013-9-28,81.2,64.3,47.8,47.7,41.8,34.3,73,47,26,30.01,29.88,5,1,11,0.00
2013-9-29,86.1,66.5,46.1,48.7,43.9,40.1,87,49,23,30.05,29.90,3,0,9,0.00
2013-9-30,87.9,64.7,45.9,44.0,39.0,34.9,78,44,17,29.95,29.79,3,0,9,0.00
2013-10-1,86.8,66.6,44.1,41.2,38.3,35.1,74,40,18,29.94,29.81,5,1,14,0.00
2013-10-2,85.3,67.2,46.1,45.7,39.5,31.9,80,41,15,29.92,29.77,6,2,16,0.00
2013-10-3,84.9,68.3,47.4,49.7,42.4,33.4,82,43,18,29.84,29.69,10,3,19,0.00
2013-10-4,83.8,69.0,56.0,53.7,40.9,26.0,81,42,13,29.90,29.74,10,4,17,0.00
2013-10-5,78.4,62.5,48.1,38.3,29.9,18.4,62,32,19,30.05,29.90,6,2,10,0.00
2013-10-6,80.8,61.8,41.1,28.7,23.7,18.1,51,26,10,30.11,29.99,9,2,15,0.00
2013-10-7,87.1,66.7,48.6,35.3,29.6,22.3,40,26,13,30.06,29.86,9,1,14,0.00
2013-10-8,82.6,66.8,50.6,41.5,37.0,32.2,57,36,17,29.86,29.74,7,2,16,0.00
2013-10-9,80.9,73.6,63.0,48.9,39.4,32.8,51,30,18,29.78,29.67,14,9,31,0.00
2013-10-10,69.5,60.7,47.4,43.7,38.7,35.1,76,46,29,29.87,29.75,16,5,25,0.00
2013-10-11,76.4,56.2,35.5,43.4,36.5,28.7,93,55,20,29.98,29.87,5,1,14,0.00
2013-10-12,81.8,61.5,38.3,41.4,35.4,29.4,82,44,15,29.98,29.84,10,3,21,0.00
2013-10-13,82.5,65.9,54.3,51.4,43.3,38.6,59,46,22,29.92,29.81,15,7,25,0.00
2013-10-14,77.5,67.5,60.6,55.1,50.5,45.6,76,56,33,29.90,29.81,9,3,22,0.00
2013-10-15,80.8,63.5,45.6,51.4,43.2,30.1,88,51,26,29.89,29.76,5,1,13,0.00
2013-10-16,78.3,56.7,38.7,33.7,23.9,10.2,68,34,8,30.03,29.90,4,1,16,0.00
2013-10-17,77.6,51.7,30.7,23.1,18.0,10.6,60,32,8,30.08,29.90,4,1,7,0.00
2013-10-18,76.6,54.7,30.9,23.9,20.9,17.3,63,31,11,30.04,29.94,6,1,12,0.00
2013-10-19,80.1,58.1,33.9,26.1,20.5,15.1,62,28,9,30.08,29.91,4,1,15,0.00
2013-10-20,79.0,57.8,34.6,23.6,16.7,6.0,55,25,6,29.98,29.83,6,1,13,0.00
2013-10-21,80.0,57.7,33.5,21.1,16.8,12.3,50,24,8,30.03,29.92,5,1,8,0.00
2013-10-22,80.0,59.4,37.4,28.2,21.4,10.3,49,26,7,30.09,29.94,8,1,12,0.00
2013-10-23,84.8,64.3,45.8,35.9,30.7,26.4,48,30,14,29.98,29.83,6,1,18,0.00
2013-10-24,84.6,64.7,45.2,41.9,32.3,26.1,54,33,12,29.97,29.84,10,2,16,0.00
2013-10-25,82.6,61.1,40.5,33.0,28.6,23.2,64,34,12,30.05,29.92,5,1,10,0.00
2013-10-26,80.3,58.8,37.3,31.4,26.9,21.2,64,34,12,30.11,29.99,3,0,11,0.00
2013-10-27,82.9,65.7,48.1,35.9,29.5,19.3,54,29,10,30.04,29.76,8,2,17,0.00
2013-10-28,76.9,63.3,49.8,32.9,28.9,19.0,46,29,13,29.89,29.75,19,6,33,0.00
2013-10-29,75.6,62.8,51.9,40.5,32.9,24.3,53,34,15,29.89,29.77,14,6,25,0.00
2013-10-30,71.6,57.9,40.5,44.7,35.9,25.3,71,47,19,29.99,29.80,14,4,23,0.00
2013-10-31,71.7,49.5,28.8,34.8,24.1,12.5,84,44,14,30.13,29.99,4,0,10,0.00
2013-11-1,74.6,50.7,27.9,21.8,16.3,9.2,60,31,9,30.21,30.07,3,0,7,0.00
2013-11-2,78.5,68.6,56.4,35.2,18.6,14.0,36,16,9,30.09,29.88,10,3,18,0.00
2013-11-3,75.5,61.4,47.1,50.5,43.5,27.1,87,55,29,29.88,29.70,12,3,20,0.02
2013-11-4,73.1,59.0,44.0,47.8,42.2,39.0,85,57,30,29.82,29.68,11,3,20,0.00
2013-11-5,68.8,55.8,44.7,45.4,39.0,30.1,86,56,24,30.10,29.77,9,2,17,0.00
2013-11-6,69.3,53.0,37.4,38.4,28.9,19.1,85,45,15,30.25,30.10,7,1,16,0.00
2013-11-7,72.3,51.6,38.7,34.1,24.6,15.3,47,35,19,30.28,30.07,5,1,14,0.00
2013-11-8,75.6,56.5,36.4,40.0,33.0,27.5,71,44,23,30.11,29.95,6,1,11,0.00
2013-11-9,76.4,55.8,35.5,41.6,33.8,28.6,78,47,23,30.12,30.01,5,1,11,0.00
2013-11-10,80.9,58.5,38.0,39.0,34.4,30.0,75,45,20,30.15,29.99,7,1,10,0.00
2013-11-11,80.3,60.1,41.1,40.8,35.7,31.1,70,43,22,30.10,29.96,4,1,9,0.00
2013-11-12,74.1,60.4,45.5,48.2,42.1,35.1,69,52,38,30.21,30.09,11,4,19,0.00
2013-11-13,69.1,57.1,48.3,44.1,41.5,39.4,73,57,40,30.21,30.00,9,3,16,0.00
2013-11-14,76.5,57.2,39.5,44.7,35.6,24.6,87,50,15,30.05,29.87,9,1,18,0.00
2013-11-15,69.2,60.3,51.0,51.5,47.1,35.6,78,63,43,29.88,29.58,23,10,36,0.00
2013-11-16,69.3,60.3,52.2,50.5,45.2,39.5,76,59,34,29.84,29.64,14,7,36,0.00
2013-11-17,71.7,59.1,47.8,48.3,44.5,39.8,88,61,33,30.01,29.84,9,3,20,0.00
2013-11-18,56.2,53.8,51.9,46.6,45.4,44.4,77,73,70,30.00,29.98,0,0,0,0.00
2013-11-19,75.5,61.6,49.8,30.6,27.6,21.3,43,29,14,29.90,29.84,6,1,19,0.00
2013-11-20,74.1,59.4,45.6,42.7,33.9,27.0,64,41,18,29.90,29.75,16,8,26,0.00
2013-11-21,68.0,58.7,47.2,49.2,44.5,38.1,72,60,47,29.90,29.82,10,5,24,0.00
2013-11-22,62.3,56.2,46.6,53.4,48.5,39.1,94,76,61,29.89,29.80,19,8,33,0.31
2013-11-23,46.4,42.4,40.0,42.2,39.1,36.5,93,88,78,30.12,29.88,15,9,25,0.59
2013-11-24,53.2,43.1,34.7,40.9,37.0,32.3,91,80,55,30.19,30.10,8,3,14,0.00
2013-11-25,54.8,40.7,28.7,38.5,32.9,26.7,95,77,43,30.30,30.16,9,2,15,0.01
2013-11-26,56.8,44.7,32.2,34.7,29.4,22.6,92,59,34,30.37,30.24,10,2,18,0.00
2013-11-27,55.5,44.8,38.3,26.4,24.7,22.1,61,46,29,30.29,30.08,9,2,17,0.00
2013-11-28,68.4,48.1,29.3,36.2,30.3,23.5,80,53,29,30.19,30.06,9,2,17,0.00
2013-11-29,71.4,53.1,35.8,45.4,37.8,31.3,88,59,26,30.21,30.07,10,2,19,0.00
2013-11-30,70.6,52.6,40.5,43.9,38.1,28.7,89,63,21,30.17,30.05,5,1,11,0.00
2013-12-1,60.6,51.9,44.4,42.7,39.0,35.6,77,62,46,30.18,30.10,4,0,4,0.00
2013-12-2,73.1,51.1,34.8,41.7,30.2,18.4,92,53,13,30.15,29.93,3,0,4,0.00
2013-12-3,70.3,56.4,41.1,44.3,30.8,8.7,59,41,11,29.95,29.71,19,7,28,0.00
2013-12-4,64.4,56.0,49.7,44.8,36.4,22.3,72,51,20,29.82,29.69,23,9,33,0.00
2013-12-5,52.7,45.4,35.5,43.2,37.8,30.3,91,76,49,30.05,29.77,14,5,22,0.10
2013-12-6,53.1,37.0,24.2,31.6,26.3,21.2,92,69,33,30.21,30.05,4,1,12,0.01
2013-12-7,58.7,40.3,23.2,31.9,19.4,8.9,90,53,14,30.15,30.04,22,8,30,0.00
2013-12-8,57.2,44.7,29.2,32.4,27.6,22.5,79,53,29,30.12,29.99,22,6,31,0.00
2013-12-9,53.7,39.1,28.5,35.0,25.0,14.0,93,61,27,30.34,30.05,8,2,12,0.00
2013-12-10,59.4,40.8,23.7,24.5,19.8,15.6,73,46,25,30.35,30.17,7,1,12,0.00
2013-12-11,65.3,47.6,32.1,40.1,26.3,17.0,57,44,32,30.29,30.17,9,3,15,0.00
2013-12-12,61.2,51.4,43.8,47.1,35.9,21.5,79,57,31,30.23,30.00,9,4,17,0.00
2013-12-13,59.0,44.2,30.1,37.2,31.3,27.0,91,64,31,30.17,30.03,8,1,17,0.01
2013-12-14,58.7,42.8,26.0,31.7,25.3,19.7,91,56,22,30.35,30.18,10,1,13,0.00
2013-12-15,63.6,43.7,26.8,26.2,19.9,14.5,78,44,15,30.39,30.24,4,1,11,0.00
2013-12-16,71.3,49.2,29.7,24.1,20.3,17.0,66,36,13,30.34,30.22,4,0,10,0.00
2013-12-17,74.0,52.0,30.8,25.7,21.4,16.8,67,35,12,30.30,30.15,7,1,13,0.00
2013-12-18,67.7,53.1,37.0,26.0,23.5,20.4,57,33,17,30.16,29.88,8,2,16,0.00
2013-12-19,63.8,52.4,41.3,27.9,23.0,15.4,54,34,16,29.88,29.70,18,6,27,0.00
2013-12-20,48.8,43.3,35.3,41.1,33.2,23.6,91,69,41,29.84,29.58,14,4,25,0.16
2013-12-21,49.0,41.3,33.2,36.9,33.3,29.5,90,74,49,30.07,29.81,13,4,19,0.00
2013-12-22,52.3,39.5,28.5,38.3,29.2,22.3,100,70,31,30.34,30.07,5,0,9,0.00
2013-12-23,59.1,40.4,23.5,32.5,23.8,20.2,89,57,23,30.46,30.34,10,2,14,0.00
2013-12-24,64.2,42.1,24.7,27.4,24.1,18.7,80,53,24,30.38,30.18,5,0,7,0.00
2013-12-25,61.2,43.6,26.5,30.3,24.6,21.2,83,52,25,30.34,30.21,8,2,13,0.00
2013-12-26,58.2,42.9,27.7,27.2,24.5,21.4,78,51,28,30.32,30.19,6,1,11,0.00
2013-12-27,58.1,40.5,27.4,27.1,23.1,19.2,78,53,25,30.33,30.20,11,2,13,0.00
2013-12-28,62.5,43.7,24.9,29.7,23.5,17.1,83,49,22,30.24,30.01,8,1,14,0.00
2013-12-29,62.3,47.4,35.1,28.3,23.2,17.6,66,41,18,30.16,29.96,7,1,11,0.00
2013-12-30,62.5,42.2,25.2,26.1,19.7,13.5,78,46,15,30.34,30.16,4,0,11,0.00
2013-12-31,66.4,46.1,31.8,23.6,18.6,15.3,60,37,14,30.34,30.15,3,0,6,0.00
2014-1-1,42.3,29.4,25.5,21.2,17.1,15.5,68,60,42,30.23,30.16,1,0,1,0.00
2014-1-2,66.1,54.7,36.7,23.7,21.8,20.2,52,29,18,30.26,30.11,10,3,16,0.00